メインページ
METAR-TAF:

METAR-TAF

空港 :

Mount Clemens, ミシガン州, アメリカ合衆国

緯度: 42-37N, 経度: 082-50W, 海抜: 177m

現時点の気象観測

当レポートは41分前の07:28(UTC)に作成
南東の風 4kt
気温 4°C
湿度 100%
気圧 1015 hPa
視程: 16.1km
高度7000ftの雲はほとんどない

METAR: KMTC 250728Z AUTO 13004KT 10SM FEW070 04/04 A2998 RMK AO2 DZB0656E17RAB17E28 SLP162 $

時間: 03:09 (08:09 UTC)

予報

当レポートは6時間9分前の02:00(UTC)に作成
予報は25日の 02時(UTC)から 26日の 07時(UTC)まで有効
の風 9kt
視程10km以上
高度600ftの曇り
小雨
25日の 03時(UTC)から 25日の 04時(UTC)まで徐々に
の風 9kt
視程10km以上
高度2000ftの千切れ雲あり
高度6000ftの曇り
25日の 11時(UTC)から 25日の 12時(UTC)まで徐々に
の風 9kt
視程: 9000m
高度2000ftの千切れ雲あり
小雨
25日の 13時(UTC)から 25日の 14時(UTC)まで徐々に
の風 9kt
視程: 6000m
高度500ftの曇り
小雨
26日の 04時(UTC)から 26日の 05時(UTC)まで徐々に
南東の風 6kt
視程: 2509m
高度300ftの曇り

TAF: KMTC 250200Z 2502/2607 09009KT 9999 -RA OVC006 QNH3009INS BECMG 2503/2504 18009KT 9999 NSW BKN020 OVC060 QNH2999INS BECMG 2511/2512 18009KT 9000 -RA BKN020 QNH2999INS BECMG 2513/2514 18009KT 6000 -RA OVC005 QNH2985INS BECMG 2604/2605 13006KT 4800 BR OVC003 QNH2981INS TX08/2523Z TN02/2502Z LAST NO AMDS AFT 2504 NEXT 2509

4,000以上の空港の気象観測と天気予報(METAR報とTAF報)

利用可能な観測所は地図上に黄色い丸と赤い丸で示す。

丸の上にカーソルを重ねると観測所名を参照できる。

次にクリックすると気象観測と天気予報を参照できる。

マップの切り替え:黒色「×」印の緑ボタンをクリックして拡大、「-」印の緑ボタンをクリックして縮小、緑色の三角印をクリックして隣りの地図に切り替え


METAR-TAF: